sensor_id;sensor_type;location;lat;lon;timestamp;P1;durP1;ratioP1;P2;durP2;ratioP2
55800;SDS011;41730;51.960;20.158;2022-09-09T00:01:19;9.00;;;5.50;;
55800;SDS011;41730;51.960;20.158;2022-09-09T00:04:02;7.70;;;5.20;;
55800;SDS011;41730;51.960;20.158;2022-09-09T00:06:44;7.80;;;5.60;;
55800;SDS011;41730;51.960;20.158;2022-09-09T00:09:23;9.10;;;5.80;;
55800;SDS011;41730;51.960;20.158;2022-09-09T00:11:58;11.50;;;6.80;;
55800;SDS011;41730;51.960;20.158;2022-09-09T00:14:37;9.70;;;5.50;;
55800;SDS011;41730;51.960;20.158;2022-09-09T00:17:14;8.30;;;5.10;;
55800;SDS011;41730;51.960;20.158;2022-09-09T00:19:56;10.70;;;5.80;;
55800;SDS011;41730;51.960;20.158;2022-09-09T00:22:31;11.60;;;5.80;;
55800;SDS011;41730;51.960;20.158;2022-09-09T00:25:06;10.00;;;5.40;;
55800;SDS011;41730;51.960;20.158;2022-09-09T00:27:43;8.00;;;5.30;;
55800;SDS011;41730;51.960;20.158;2022-09-09T00:30:19;8.60;;;5.60;;
55800;SDS011;41730;51.960;20.158;2022-09-09T00:32:54;9.80;;;5.90;;
55800;SDS011;41730;51.960;20.158;2022-09-09T00:35:29;11.10;;;6.30;;
55800;SDS011;41730;51.960;20.158;2022-09-09T00:38:05;9.80;;;6.10;;
55800;SDS011;41730;51.960;20.158;2022-09-09T00:40:45;11.30;;;6.50;;
55800;SDS011;41730;51.960;20.158;2022-09-09T00:43:28;9.90;;;5.80;;
55800;SDS011;41730;51.960;20.158;2022-09-09T00:49:22;9.60;;;5.90;;
55800;SDS011;41730;51.960;20.158;2022-09-09T00:52:11;9.60;;;5.80;;
55800;SDS011;41730;51.960;20.158;2022-09-09T00:54:55;12.40;;;5.70;;
55800;SDS011;41730;51.960;20.158;2022-09-09T00:57:34;9.50;;;5.80;;
55800;SDS011;41730;51.960;20.158;2022-09-09T01:00:20;10.50;;;6.20;;
55800;SDS011;41730;51.960;20.158;2022-09-09T01:02:56;11.80;;;5.30;;
55800;SDS011;41730;51.960;20.158;2022-09-09T01:05:38;10.00;;;5.70;;
55800;SDS011;41730;51.960;20.158;2022-09-09T01:08:17;9.80;;;5.60;;
55800;SDS011;41730;51.960;20.158;2022-09-09T01:11:06;9.50;;;5.70;;
55800;SDS011;41730;51.960;20.158;2022-09-09T01:13:46;10.00;;;6.40;;
55800;SDS011;41730;51.960;20.158;2022-09-09T01:16:23;9.20;;;6.00;;
55800;SDS011;41730;51.960;20.158;2022-09-09T01:18:55;12.60;;;6.40;;
55800;SDS011;41730;51.960;20.158;2022-09-09T01:21:32;11.00;;;5.90;;
55800;SDS011;41730;51.960;20.158;2022-09-09T01:24:18;11.30;;;6.30;;
55800;SDS011;41730;51.960;20.158;2022-09-09T01:26:57;12.60;;;5.70;;
55800;SDS011;41730;51.960;20.158;2022-09-09T01:29:30;9.80;;;6.30;;
55800;SDS011;41730;51.960;20.158;2022-09-09T01:32:35;12.10;;;6.80;;
55800;SDS011;41730;51.960;20.158;2022-09-09T01:35:12;13.80;;;7.40;;
55800;SDS011;41730;51.960;20.158;2022-09-09T01:37:51;13.30;;;6.10;;
55800;SDS011;41730;51.960;20.158;2022-09-09T01:40:23;15.20;;;6.60;;
55800;SDS011;41730;51.960;20.158;2022-09-09T01:42:55;11.20;;;6.90;;
55800;SDS011;41730;51.960;20.158;2022-09-09T01:45:27;10.80;;;6.40;;
55800;SDS011;41730;51.960;20.158;2022-09-09T01:47:59;11.30;;;6.30;;
55800;SDS011;41730;51.960;20.158;2022-09-09T01:50:32;12.30;;;7.30;;
55800;SDS011;41730;51.960;20.158;2022-09-09T01:53:03;12.40;;;6.70;;
55800;SDS011;41730;51.960;20.158;2022-09-09T01:55:37;12.30;;;6.90;;
55800;SDS011;41730;51.960;20.158;2022-09-09T01:58:16;12.30;;;6.10;;
55800;SDS011;41730;51.960;20.158;2022-09-09T02:01:02;11.20;;;6.80;;
55800;SDS011;41730;51.960;20.158;2022-09-09T02:03:44;11.40;;;6.50;;
55800;SDS011;41730;51.960;20.158;2022-09-09T02:06:25;11.80;;;7.10;;
55800;SDS011;41730;51.960;20.158;2022-09-09T02:09:00;10.30;;;6.80;;
55800;SDS011;41730;51.960;20.158;2022-09-09T02:11:34;15.70;;;7.50;;
55800;SDS011;41730;51.960;20.158;2022-09-09T02:14:07;13.80;;;7.20;;
55800;SDS011;41730;51.960;20.158;2022-09-09T02:16:44;11.60;;;7.10;;
55800;SDS011;41730;51.960;20.158;2022-09-09T02:19:19;12.40;;;7.00;;
55800;SDS011;41730;51.960;20.158;2022-09-09T02:21:55;14.80;;;7.10;;
55800;SDS011;41730;51.960;20.158;2022-09-09T02:24:29;10.00;;;7.00;;
55800;SDS011;41730;51.960;20.158;2022-09-09T02:27:04;11.90;;;6.70;;
55800;SDS011;41730;51.960;20.158;2022-09-09T02:29:39;11.00;;;7.40;;
55800;SDS011;41730;51.960;20.158;2022-09-09T02:32:13;12.60;;;7.30;;
55800;SDS011;41730;51.960;20.158;2022-09-09T02:34:48;15.00;;;7.90;;
55800;SDS011;41730;51.960;20.158;2022-09-09T02:39:58;12.70;;;6.90;;
55800;SDS011;41730;51.960;20.158;2022-09-09T02:42:30;15.30;;;7.30;;
55800;SDS011;41730;51.960;20.158;2022-09-09T02:45:01;27.60;;;9.70;;
55800;SDS011;41730;51.960;20.158;2022-09-09T02:47:34;18.40;;;10.40;;
55800;SDS011;41730;51.960;20.158;2022-09-09T02:50:10;15.90;;;9.30;;
55800;SDS011;41730;51.960;20.158;2022-09-09T02:53:04;14.50;;;8.10;;
55800;SDS011;41730;51.960;20.158;2022-09-09T02:58:12;12.90;;;7.50;;
55800;SDS011;41730;51.960;20.158;2022-09-09T03:00:47;13.90;;;8.50;;
55800;SDS011;41730;51.960;20.158;2022-09-09T03:03:20;13.30;;;7.60;;
55800;SDS011;41730;51.960;20.158;2022-09-09T03:05:52;12.70;;;8.60;;
55800;SDS011;41730;51.960;20.158;2022-09-09T03:08:24;13.10;;;8.90;;
55800;SDS011;41730;51.960;20.158;2022-09-09T03:10:57;14.70;;;9.10;;
55800;SDS011;41730;51.960;20.158;2022-09-09T03:13:30;12.00;;;7.40;;
55800;SDS011;41730;51.960;20.158;2022-09-09T03:16:02;13.40;;;8.10;;
55800;SDS011;41730;51.960;20.158;2022-09-09T03:18:33;10.90;;;7.30;;
55800;SDS011;41730;51.960;20.158;2022-09-09T03:21:05;13.80;;;7.50;;
55800;SDS011;41730;51.960;20.158;2022-09-09T03:23:36;13.10;;;8.20;;
55800;SDS011;41730;51.960;20.158;2022-09-09T03:26:07;12.90;;;8.30;;
55800;SDS011;41730;51.960;20.158;2022-09-09T03:28:39;12.50;;;7.90;;
55800;SDS011;41730;51.960;20.158;2022-09-09T03:31:10;11.00;;;7.20;;
55800;SDS011;41730;51.960;20.158;2022-09-09T03:33:42;11.70;;;7.80;;
55800;SDS011;41730;51.960;20.158;2022-09-09T03:36:14;13.40;;;7.50;;
55800;SDS011;41730;51.960;20.158;2022-09-09T03:38:47;11.00;;;7.00;;
55800;SDS011;41730;51.960;20.158;2022-09-09T03:41:24;10.80;;;7.90;;
55800;SDS011;41730;51.960;20.158;2022-09-09T03:43:59;10.80;;;7.60;;
55800;SDS011;41730;51.960;20.158;2022-09-09T03:46:35;10.30;;;7.70;;
55800;SDS011;41730;51.960;20.158;2022-09-09T03:49:06;10.50;;;6.90;;
55800;SDS011;41730;51.960;20.158;2022-09-09T03:51:38;10.30;;;7.20;;
55800;SDS011;41730;51.960;20.158;2022-09-09T03:54:10;11.40;;;7.20;;
55800;SDS011;41730;51.960;20.158;2022-09-09T03:56:41;12.40;;;7.40;;
55800;SDS011;41730;51.960;20.158;2022-09-09T03:59:13;10.60;;;7.70;;
55800;SDS011;41730;51.960;20.158;2022-09-09T04:01:44;10.40;;;7.00;;
55800;SDS011;41730;51.960;20.158;2022-09-09T04:04:16;11.50;;;8.00;;
55800;SDS011;41730;51.960;20.158;2022-09-09T04:06:48;13.30;;;8.00;;
55800;SDS011;41730;51.960;20.158;2022-09-09T04:09:19;12.10;;;7.90;;
55800;SDS011;41730;51.960;20.158;2022-09-09T04:11:51;12.70;;;8.40;;
55800;SDS011;41730;51.960;20.158;2022-09-09T04:14:22;11.20;;;7.70;;
55800;SDS011;41730;51.960;20.158;2022-09-09T04:16:56;9.20;;;7.40;;
55800;SDS011;41730;51.960;20.158;2022-09-09T04:19:28;11.30;;;7.60;;
55800;SDS011;41730;51.960;20.158;2022-09-09T04:22:00;14.10;;;8.10;;
55800;SDS011;41730;51.960;20.158;2022-09-09T04:24:31;11.40;;;7.90;;
55800;SDS011;41730;51.960;20.158;2022-09-09T04:27:03;11.80;;;7.80;;
55800;SDS011;41730;51.960;20.158;2022-09-09T04:29:34;13.40;;;7.50;;
55800;SDS011;41730;51.960;20.158;2022-09-09T04:32:06;12.80;;;7.80;;
55800;SDS011;41730;51.960;20.158;2022-09-09T04:34:38;10.70;;;8.10;;
55800;SDS011;41730;51.960;20.158;2022-09-09T04:37:11;11.00;;;7.50;;
55800;SDS011;41730;51.960;20.158;2022-09-09T04:39:43;11.60;;;7.40;;
55800;SDS011;41730;51.960;20.158;2022-09-09T04:42:14;14.00;;;8.10;;
55800;SDS011;41730;51.960;20.158;2022-09-09T04:44:47;12.00;;;7.70;;
55800;SDS011;41730;51.960;20.158;2022-09-09T04:47:19;14.40;;;8.10;;
55800;SDS011;41730;51.960;20.158;2022-09-09T04:49:50;12.90;;;7.40;;
55800;SDS011;41730;51.960;20.158;2022-09-09T04:52:22;14.80;;;8.40;;
55800;SDS011;41730;51.960;20.158;2022-09-09T04:54:54;12.00;;;8.50;;
55800;SDS011;41730;51.960;20.158;2022-09-09T04:57:25;13.40;;;8.60;;
55800;SDS011;41730;51.960;20.158;2022-09-09T05:00:00;15.40;;;9.40;;
55800;SDS011;41730;51.960;20.158;2022-09-09T05:02:32;12.70;;;8.10;;
55800;SDS011;41730;51.960;20.158;2022-09-09T05:05:06;14.60;;;8.60;;
55800;SDS011;41730;51.960;20.158;2022-09-09T05:07:39;14.30;;;8.90;;
55800;SDS011;41730;51.960;20.158;2022-09-09T05:10:11;17.20;;;10.40;;
55800;SDS011;41730;51.960;20.158;2022-09-09T05:12:51;14.10;;;9.50;;
55800;SDS011;41730;51.960;20.158;2022-09-09T05:15:23;14.50;;;10.70;;
55800;SDS011;41730;51.960;20.158;2022-09-09T05:17:58;15.20;;;10.40;;
55800;SDS011;41730;51.960;20.158;2022-09-09T05:20:30;15.70;;;10.70;;
55800;SDS011;41730;51.960;20.158;2022-09-09T05:23:01;18.80;;;10.80;;
55800;SDS011;41730;51.960;20.158;2022-09-09T05:25:33;18.10;;;10.10;;
55800;SDS011;41730;51.960;20.158;2022-09-09T05:28:04;15.40;;;9.70;;
55800;SDS011;41730;51.960;20.158;2022-09-09T05:30:36;20.00;;;10.10;;
55800;SDS011;41730;51.960;20.158;2022-09-09T05:33:08;15.90;;;11.20;;
55800;SDS011;41730;51.960;20.158;2022-09-09T05:35:39;21.60;;;13.00;;
55800;SDS011;41730;51.960;20.158;2022-09-09T05:38:11;17.50;;;12.30;;
55800;SDS011;41730;51.960;20.158;2022-09-09T05:40:48;21.60;;;11.90;;
55800;SDS011;41730;51.960;20.158;2022-09-09T05:43:20;19.90;;;12.40;;
55800;SDS011;41730;51.960;20.158;2022-09-09T05:46:00;19.70;;;11.90;;
55800;SDS011;41730;51.960;20.158;2022-09-09T05:48:34;17.30;;;9.90;;
55800;SDS011;41730;51.960;20.158;2022-09-09T05:51:07;20.40;;;12.20;;
55800;SDS011;41730;51.960;20.158;2022-09-09T05:53:41;21.20;;;11.80;;
55800;SDS011;41730;51.960;20.158;2022-09-09T05:56:13;19.00;;;10.90;;
55800;SDS011;41730;51.960;20.158;2022-09-09T05:58:46;16.80;;;11.10;;
55800;SDS011;41730;51.960;20.158;2022-09-09T06:01:19;19.30;;;11.30;;
55800;SDS011;41730;51.960;20.158;2022-09-09T06:03:51;21.90;;;10.70;;
55800;SDS011;41730;51.960;20.158;2022-09-09T06:06:24;18.50;;;11.70;;
55800;SDS011;41730;51.960;20.158;2022-09-09T06:08:59;19.20;;;11.40;;
55800;SDS011;41730;51.960;20.158;2022-09-09T06:11:35;16.00;;;11.00;;
55800;SDS011;41730;51.960;20.158;2022-09-09T06:14:08;20.10;;;11.50;;
55800;SDS011;41730;51.960;20.158;2022-09-09T06:16:39;18.30;;;11.50;;
55800;SDS011;41730;51.960;20.158;2022-09-09T06:19:12;17.50;;;11.40;;
55800;SDS011;41730;51.960;20.158;2022-09-09T06:21:44;22.40;;;12.30;;
55800;SDS011;41730;51.960;20.158;2022-09-09T06:24:17;22.80;;;12.10;;
55800;SDS011;41730;51.960;20.158;2022-09-09T06:26:49;17.40;;;11.90;;
55800;SDS011;41730;51.960;20.158;2022-09-09T06:29:22;23.70;;;12.20;;
55800;SDS011;41730;51.960;20.158;2022-09-09T06:31:53;24.10;;;13.40;;
55800;SDS011;41730;51.960;20.158;2022-09-09T06:34:26;25.80;;;16.50;;
55800;SDS011;41730;51.960;20.158;2022-09-09T06:36:58;30.60;;;15.60;;
55800;SDS011;41730;51.960;20.158;2022-09-09T06:39:29;24.50;;;15.90;;
55800;SDS011;41730;51.960;20.158;2022-09-09T06:42:01;24.40;;;14.40;;
55800;SDS011;41730;51.960;20.158;2022-09-09T06:44:33;21.10;;;12.90;;
55800;SDS011;41730;51.960;20.158;2022-09-09T06:47:04;21.80;;;13.00;;
55800;SDS011;41730;51.960;20.158;2022-09-09T06:49:36;25.60;;;14.80;;
55800;SDS011;41730;51.960;20.158;2022-09-09T06:52:08;24.40;;;14.00;;
55800;SDS011;41730;51.960;20.158;2022-09-09T06:54:40;22.50;;;13.80;;
55800;SDS011;41730;51.960;20.158;2022-09-09T06:57:13;26.80;;;13.50;;
55800;SDS011;41730;51.960;20.158;2022-09-09T07:00:04;25.90;;;14.20;;
55800;SDS011;41730;51.960;20.158;2022-09-09T07:02:37;24.40;;;14.90;;
55800;SDS011;41730;51.960;20.158;2022-09-09T07:05:09;26.90;;;14.90;;
55800;SDS011;41730;51.960;20.158;2022-09-09T07:07:42;28.30;;;15.20;;
55800;SDS011;41730;51.960;20.158;2022-09-09T07:10:15;31.40;;;15.70;;
55800;SDS011;41730;51.960;20.158;2022-09-09T07:12:47;30.10;;;15.20;;
55800;SDS011;41730;51.960;20.158;2022-09-09T07:15:23;28.50;;;15.90;;
55800;SDS011;41730;51.960;20.158;2022-09-09T07:17:54;30.50;;;15.60;;
55800;SDS011;41730;51.960;20.158;2022-09-09T07:20:32;29.30;;;15.20;;
55800;SDS011;41730;51.960;20.158;2022-09-09T07:23:03;30.00;;;16.00;;
55800;SDS011;41730;51.960;20.158;2022-09-09T07:25:35;27.50;;;15.20;;
55800;SDS011;41730;51.960;20.158;2022-09-09T07:28:06;28.00;;;16.60;;
55800;SDS011;41730;51.960;20.158;2022-09-09T07:30:38;29.30;;;16.40;;
55800;SDS011;41730;51.960;20.158;2022-09-09T07:33:10;27.80;;;16.20;;
55800;SDS011;41730;51.960;20.158;2022-09-09T07:35:42;29.80;;;17.10;;
55800;SDS011;41730;51.960;20.158;2022-09-09T07:38:14;31.20;;;16.90;;
55800;SDS011;41730;51.960;20.158;2022-09-09T07:40:46;32.80;;;18.00;;
55800;SDS011;41730;51.960;20.158;2022-09-09T07:43:18;30.30;;;17.10;;
55800;SDS011;41730;51.960;20.158;2022-09-09T07:45:58;30.00;;;17.40;;
55800;SDS011;41730;51.960;20.158;2022-09-09T07:48:30;33.10;;;18.00;;
55800;SDS011;41730;51.960;20.158;2022-09-09T07:51:06;30.40;;;18.50;;
55800;SDS011;41730;51.960;20.158;2022-09-09T07:53:40;34.10;;;18.20;;
55800;SDS011;41730;51.960;20.158;2022-09-09T07:56:12;31.90;;;17.00;;
55800;SDS011;41730;51.960;20.158;2022-09-09T07:58:45;29.10;;;17.20;;
55800;SDS011;41730;51.960;20.158;2022-09-09T08:01:18;33.80;;;17.90;;
55800;SDS011;41730;51.960;20.158;2022-09-09T08:03:56;31.30;;;17.00;;
55800;SDS011;41730;51.960;20.158;2022-09-09T08:06:30;28.20;;;17.30;;
55800;SDS011;41730;51.960;20.158;2022-09-09T08:09:05;30.70;;;17.40;;
55800;SDS011;41730;51.960;20.158;2022-09-09T08:11:39;28.30;;;16.80;;
55800;SDS011;41730;51.960;20.158;2022-09-09T08:14:13;28.40;;;17.20;;
55800;SDS011;41730;51.960;20.158;2022-09-09T08:16:45;29.60;;;16.90;;
55800;SDS011;41730;51.960;20.158;2022-09-09T08:19:18;28.40;;;16.10;;
55800;SDS011;41730;51.960;20.158;2022-09-09T08:21:49;28.50;;;16.60;;
55800;SDS011;41730;51.960;20.158;2022-09-09T08:24:22;28.80;;;17.70;;
55800;SDS011;41730;51.960;20.158;2022-09-09T08:26:54;29.50;;;17.80;;
55800;SDS011;41730;51.960;20.158;2022-09-09T08:29:25;31.70;;;18.30;;
55800;SDS011;41730;51.960;20.158;2022-09-09T08:31:58;33.80;;;17.20;;
55800;SDS011;41730;51.960;20.158;2022-09-09T08:34:30;30.90;;;17.20;;
55800;SDS011;41730;51.960;20.158;2022-09-09T08:37:02;26.70;;;16.60;;
55800;SDS011;41730;51.960;20.158;2022-09-09T08:39:34;25.20;;;16.20;;
55800;SDS011;41730;51.960;20.158;2022-09-09T08:42:18;27.40;;;16.40;;
55800;SDS011;41730;51.960;20.158;2022-09-09T08:45:02;28.90;;;17.00;;
55800;SDS011;41730;51.960;20.158;2022-09-09T08:47:51;25.00;;;16.60;;
55800;SDS011;41730;51.960;20.158;2022-09-09T08:50:32;25.00;;;16.80;;
55800;SDS011;41730;51.960;20.158;2022-09-09T08:53:09;29.10;;;18.40;;
55800;SDS011;41730;51.960;20.158;2022-09-09T08:55:46;23.50;;;17.40;;
55800;SDS011;41730;51.960;20.158;2022-09-09T08:58:22;26.80;;;17.70;;
55800;SDS011;41730;51.960;20.158;2022-09-09T09:01:05;24.90;;;16.70;;
55800;SDS011;41730;51.960;20.158;2022-09-09T09:03:53;24.70;;;16.90;;
55800;SDS011;41730;51.960;20.158;2022-09-09T09:06:35;24.40;;;17.20;;
55800;SDS011;41730;51.960;20.158;2022-09-09T09:09:20;26.00;;;17.80;;
55800;SDS011;41730;51.960;20.158;2022-09-09T09:11:57;27.60;;;17.40;;
55800;SDS011;41730;51.960;20.158;2022-09-09T09:14:31;24.10;;;16.70;;
55800;SDS011;41730;51.960;20.158;2022-09-09T09:17:05;26.20;;;17.90;;
55800;SDS011;41730;51.960;20.158;2022-09-09T09:19:42;24.20;;;16.70;;
55800;SDS011;41730;51.960;20.158;2022-09-09T09:22:17;27.90;;;18.00;;
55800;SDS011;41730;51.960;20.158;2022-09-09T09:24:52;26.60;;;17.50;;
55800;SDS011;41730;51.960;20.158;2022-09-09T09:27:32;24.90;;;17.30;;
55800;SDS011;41730;51.960;20.158;2022-09-09T09:30:13;27.50;;;17.60;;
55800;SDS011;41730;51.960;20.158;2022-09-09T09:32:58;24.50;;;17.70;;
55800;SDS011;41730;51.960;20.158;2022-09-09T09:35:38;26.20;;;16.80;;
55800;SDS011;41730;51.960;20.158;2022-09-09T09:38:14;23.80;;;15.00;;
55800;SDS011;41730;51.960;20.158;2022-09-09T09:41:04;22.90;;;16.00;;
55800;SDS011;41730;51.960;20.158;2022-09-09T09:43:36;20.80;;;15.00;;
55800;SDS011;41730;51.960;20.158;2022-09-09T09:48:57;22.80;;;14.90;;
55800;SDS011;41730;51.960;20.158;2022-09-09T09:51:31;22.30;;;16.30;;
55800;SDS011;41730;51.960;20.158;2022-09-09T09:54:08;21.80;;;14.50;;
55800;SDS011;41730;51.960;20.158;2022-09-09T09:56:44;24.10;;;15.20;;
55800;SDS011;41730;51.960;20.158;2022-09-09T09:59:34;23.60;;;14.60;;
55800;SDS011;41730;51.960;20.158;2022-09-09T10:02:19;21.70;;;14.80;;
55800;SDS011;41730;51.960;20.158;2022-09-09T10:05:01;21.60;;;14.70;;
55800;SDS011;41730;51.960;20.158;2022-09-09T10:07:36;22.10;;;13.60;;
55800;SDS011;41730;51.960;20.158;2022-09-09T10:10:18;19.80;;;14.20;;
55800;SDS011;41730;51.960;20.158;2022-09-09T10:12:58;22.20;;;14.30;;
55800;SDS011;41730;51.960;20.158;2022-09-09T10:15:40;16.80;;;12.00;;
55800;SDS011;41730;51.960;20.158;2022-09-09T10:21:27;20.50;;;13.50;;
55800;SDS011;41730;51.960;20.158;2022-09-09T10:24:18;21.30;;;14.70;;
55800;SDS011;41730;51.960;20.158;2022-09-09T10:27:23;19.70;;;14.00;;
55800;SDS011;41730;51.960;20.158;2022-09-09T10:30:06;18.10;;;13.00;;
55800;SDS011;41730;51.960;20.158;2022-09-09T10:32:53;17.90;;;13.70;;
55800;SDS011;41730;51.960;20.158;2022-09-09T10:35:35;19.10;;;13.70;;
55800;SDS011;41730;51.960;20.158;2022-09-09T10:38:15;20.10;;;13.00;;
55800;SDS011;41730;51.960;20.158;2022-09-09T10:41:04;19.80;;;14.70;;
55800;SDS011;41730;51.960;20.158;2022-09-09T10:43:56;19.30;;;13.50;;
55800;SDS011;41730;51.960;20.158;2022-09-09T10:46:48;16.20;;;12.10;;
55800;SDS011;41730;51.960;20.158;2022-09-09T10:49:52;13.60;;;11.10;;
55800;SDS011;41730;51.960;20.158;2022-09-09T10:52:38;18.50;;;12.70;;
55800;SDS011;41730;51.960;20.158;2022-09-09T10:55:19;18.90;;;13.30;;
55800;SDS011;41730;51.960;20.158;2022-09-09T10:57:57;18.20;;;13.10;;
55800;SDS011;41730;51.960;20.158;2022-09-09T11:00:35;16.90;;;12.70;;
55800;SDS011;41730;51.960;20.158;2022-09-09T11:03:12;17.50;;;11.60;;
55800;SDS011;41730;51.960;20.158;2022-09-09T11:05:50;16.40;;;12.30;;
55800;SDS011;41730;51.960;20.158;2022-09-09T11:08:26;18.90;;;13.80;;
55800;SDS011;41730;51.960;20.158;2022-09-09T11:11:02;14.20;;;12.10;;
55800;SDS011;41730;51.960;20.158;2022-09-09T11:13:42;16.30;;;11.50;;
55800;SDS011;41730;51.960;20.158;2022-09-09T11:16:21;17.20;;;11.50;;
55800;SDS011;41730;51.960;20.158;2022-09-09T11:19:00;15.20;;;11.70;;
55800;SDS011;41730;51.960;20.158;2022-09-09T11:21:41;20.70;;;12.50;;
55800;SDS011;41730;51.960;20.158;2022-09-09T11:24:16;16.10;;;11.70;;
55800;SDS011;41730;51.960;20.158;2022-09-09T11:26:54;16.70;;;12.30;;
55800;SDS011;41730;51.960;20.158;2022-09-09T11:29:45;15.40;;;11.40;;
55800;SDS011;41730;51.960;20.158;2022-09-09T11:32:39;15.20;;;11.10;;
55800;SDS011;41730;51.960;20.158;2022-09-09T11:35:29;15.80;;;11.60;;
55800;SDS011;41730;51.960;20.158;2022-09-09T11:38:15;16.60;;;11.60;;
55800;SDS011;41730;51.960;20.158;2022-09-09T11:41:00;13.90;;;10.70;;
55800;SDS011;41730;51.960;20.158;2022-09-09T11:43:38;14.00;;;10.50;;
55800;SDS011;41730;51.960;20.158;2022-09-09T11:46:11;14.40;;;10.50;;
55800;SDS011;41730;51.960;20.158;2022-09-09T11:48:46;14.60;;;9.80;;
55800;SDS011;41730;51.960;20.158;2022-09-09T11:54:01;14.90;;;10.60;;
55800;SDS011;41730;51.960;20.158;2022-09-09T11:56:52;16.00;;;10.50;;
55800;SDS011;41730;51.960;20.158;2022-09-09T11:59:25;14.90;;;11.20;;
55800;SDS011;41730;51.960;20.158;2022-09-09T12:04:31;14.20;;;10.10;;
55800;SDS011;41730;51.960;20.158;2022-09-09T12:07:20;13.60;;;10.70;;
55800;SDS011;41730;51.960;20.158;2022-09-09T12:09:58;11.80;;;8.50;;
55800;SDS011;41730;51.960;20.158;2022-09-09T12:12:34;11.90;;;9.30;;
55800;SDS011;41730;51.960;20.158;2022-09-09T12:15:21;12.10;;;8.80;;
55800;SDS011;41730;51.960;20.158;2022-09-09T12:17:57;12.90;;;9.70;;
55800;SDS011;41730;51.960;20.158;2022-09-09T12:20:35;15.30;;;8.70;;
55800;SDS011;41730;51.960;20.158;2022-09-09T12:23:13;11.30;;;8.20;;
55800;SDS011;41730;51.960;20.158;2022-09-09T12:25:57;12.50;;;8.80;;
55800;SDS011;41730;51.960;20.158;2022-09-09T12:31:34;10.90;;;8.20;;
55800;SDS011;41730;51.960;20.158;2022-09-09T12:34:13;12.50;;;8.50;;
55800;SDS011;41730;51.960;20.158;2022-09-09T12:36:49;12.70;;;8.00;;
55800;SDS011;41730;51.960;20.158;2022-09-09T12:39:29;11.90;;;8.30;;
55800;SDS011;41730;51.960;20.158;2022-09-09T12:42:04;9.70;;;7.20;;
55800;SDS011;41730;51.960;20.158;2022-09-09T12:44:52;12.80;;;8.90;;
55800;SDS011;41730;51.960;20.158;2022-09-09T12:47:27;16.80;;;9.50;;
55800;SDS011;41730;51.960;20.158;2022-09-09T12:50:12;11.00;;;8.70;;
55800;SDS011;41730;51.960;20.158;2022-09-09T12:52:49;11.00;;;8.20;;
55800;SDS011;41730;51.960;20.158;2022-09-09T12:57:55;10.90;;;8.10;;
55800;SDS011;41730;51.960;20.158;2022-09-09T13:00:28;9.30;;;7.10;;
55800;SDS011;41730;51.960;20.158;2022-09-09T13:03:00;9.20;;;7.20;;
55800;SDS011;41730;51.960;20.158;2022-09-09T13:05:44;10.20;;;7.00;;
55800;SDS011;41730;51.960;20.158;2022-09-09T13:08:16;9.80;;;7.50;;
55800;SDS011;41730;51.960;20.158;2022-09-09T13:10:49;8.10;;;6.90;;
55800;SDS011;41730;51.960;20.158;2022-09-09T13:13:31;9.80;;;6.70;;
55800;SDS011;41730;51.960;20.158;2022-09-09T13:16:22;8.20;;;6.80;;
55800;SDS011;41730;51.960;20.158;2022-09-09T13:18:59;8.60;;;6.90;;
55800;SDS011;41730;51.960;20.158;2022-09-09T13:21:37;7.70;;;6.00;;
55800;SDS011;41730;51.960;20.158;2022-09-09T13:24:22;10.50;;;6.80;;
55800;SDS011;41730;51.960;20.158;2022-09-09T13:26:58;8.80;;;7.00;;
55800;SDS011;41730;51.960;20.158;2022-09-09T13:29:32;8.00;;;7.00;;
55800;SDS011;41730;51.960;20.158;2022-09-09T13:32:06;9.10;;;6.80;;
55800;SDS011;41730;51.960;20.158;2022-09-09T13:34:51;8.60;;;6.80;;
55800;SDS011;41730;51.960;20.158;2022-09-09T13:37:28;7.10;;;6.20;;
55800;SDS011;41730;51.960;20.158;2022-09-09T13:40:04;8.90;;;7.10;;
55800;SDS011;41730;51.960;20.158;2022-09-09T13:42:46;8.60;;;6.90;;
55800;SDS011;41730;51.960;20.158;2022-09-09T13:45:22;8.00;;;6.50;;
55800;SDS011;41730;51.960;20.158;2022-09-09T13:47:55;9.20;;;6.60;;
55800;SDS011;41730;51.960;20.158;2022-09-09T13:50:37;8.00;;;6.60;;
55800;SDS011;41730;51.960;20.158;2022-09-09T13:53:09;7.70;;;6.30;;
55800;SDS011;41730;51.960;20.158;2022-09-09T13:55:41;10.20;;;6.80;;
55800;SDS011;41730;51.960;20.158;2022-09-09T13:58:19;8.60;;;7.10;;
55800;SDS011;41730;51.960;20.158;2022-09-09T14:00:53;8.20;;;6.40;;
55800;SDS011;41730;51.960;20.158;2022-09-09T14:03:25;10.60;;;6.60;;
55800;SDS011;41730;51.960;20.158;2022-09-09T14:05:57;8.60;;;6.30;;
55800;SDS011;41730;51.960;20.158;2022-09-09T14:08:29;10.40;;;6.40;;
55800;SDS011;41730;51.960;20.158;2022-09-09T14:11:05;8.70;;;6.70;;
55800;SDS011;41730;51.960;20.158;2022-09-09T14:13:40;8.40;;;6.30;;
55800;SDS011;41730;51.960;20.158;2022-09-09T14:16:12;8.10;;;6.40;;
55800;SDS011;41730;51.960;20.158;2022-09-09T14:18:43;7.10;;;6.20;;
55800;SDS011;41730;51.960;20.158;2022-09-09T14:21:15;8.10;;;6.40;;
55800;SDS011;41730;51.960;20.158;2022-09-09T14:23:47;9.30;;;6.30;;
55800;SDS011;41730;51.960;20.158;2022-09-09T14:26:18;7.90;;;6.20;;
55800;SDS011;41730;51.960;20.158;2022-09-09T14:28:50;9.10;;;6.50;;
55800;SDS011;41730;51.960;20.158;2022-09-09T14:31:23;7.60;;;5.90;;
55800;SDS011;41730;51.960;20.158;2022-09-09T14:33:55;7.90;;;5.90;;
55800;SDS011;41730;51.960;20.158;2022-09-09T14:36:27;8.80;;;5.90;;
55800;SDS011;41730;51.960;20.158;2022-09-09T14:38:58;7.40;;;6.10;;
55800;SDS011;41730;51.960;20.158;2022-09-09T14:41:30;9.80;;;6.60;;
55800;SDS011;41730;51.960;20.158;2022-09-09T14:44:01;9.10;;;7.00;;
55800;SDS011;41730;51.960;20.158;2022-09-09T14:46:33;7.00;;;6.00;;
55800;SDS011;41730;51.960;20.158;2022-09-09T14:49:05;6.80;;;5.40;;
55800;SDS011;41730;51.960;20.158;2022-09-09T14:51:36;8.50;;;6.60;;
55800;SDS011;41730;51.960;20.158;2022-09-09T14:54:08;8.20;;;6.50;;
55800;SDS011;41730;51.960;20.158;2022-09-09T14:56:40;6.90;;;5.30;;
55800;SDS011;41730;51.960;20.158;2022-09-09T14:59:11;6.70;;;5.50;;
55800;SDS011;41730;51.960;20.158;2022-09-09T15:01:43;7.70;;;5.90;;
55800;SDS011;41730;51.960;20.158;2022-09-09T15:04:14;7.80;;;5.40;;
55800;SDS011;41730;51.960;20.158;2022-09-09T15:06:46;7.20;;;6.10;;
55800;SDS011;41730;51.960;20.158;2022-09-09T15:09:20;7.50;;;5.50;;
55800;SDS011;41730;51.960;20.158;2022-09-09T15:11:52;8.40;;;6.20;;
55800;SDS011;41730;51.960;20.158;2022-09-09T15:14:24;7.10;;;5.60;;
55800;SDS011;41730;51.960;20.158;2022-09-09T15:16:56;8.40;;;6.00;;
55800;SDS011;41730;51.960;20.158;2022-09-09T15:19:28;7.40;;;6.00;;
55800;SDS011;41730;51.960;20.158;2022-09-09T15:22:00;7.30;;;5.50;;
55800;SDS011;41730;51.960;20.158;2022-09-09T15:24:33;7.10;;;5.90;;
55800;SDS011;41730;51.960;20.158;2022-09-09T15:27:04;6.40;;;5.80;;
55800;SDS011;41730;51.960;20.158;2022-09-09T15:29:36;9.80;;;5.80;;
55800;SDS011;41730;51.960;20.158;2022-09-09T15:32:07;6.10;;;5.30;;
55800;SDS011;41730;51.960;20.158;2022-09-09T15:34:39;7.40;;;5.40;;